Date,TemperatureHighF,TemperatureAvgF,TemperatureLowF,DewpointHighF,DewpointAvgF,DewpointLowF,HumidityHigh,HumidityAvg,HumidityLow,PressureMaxIn,PressureMinIn,WindSpeedMaxMPH,WindSpeedAvgMPH,GustSpeedMaxMPH,PrecipitationSumIn
2013-8-1,89,77,70,76,71,67,99,84,57,30.12,30.01,5,3,16,0.03
2013-8-2,94,78,68,76,70,66,100,80,47,30.16,30.05,6,2,12,0.01
2013-8-3,92,79,69,74,71,68,100,79,50,30.16,30.07,8,3,18,0.00
2013-8-4,91,77,66,73,69,66,100,80,46,30.15,30.05,8,3,19,0.00
2013-8-5,88,75,66,72,67,64,100,80,51,30.20,30.10,6,3,16,0.00
2013-8-6,78,72,67,71,68,65,100,88,72,30.18,30.10,8,3,19,0.43
2013-8-7,87,75,69,74,70,67,98,85,56,30.22,30.15,7,3,18,0.19
2013-8-8,89,77,70,77,72,69,100,85,61,30.19,30.13,6,3,15,0.06
2013-8-9,92,79,70,78,73,70,100,84,57,30.20,30.13,8,4,24,0.01
2013-8-10,95,79,71,76,73,70,100,83,55,30.24,30.18,8,4,34,0.06
2013-8-11,96,80,68,77,72,68,100,81,47,30.25,30.17,5,2,13,0.01
2013-8-12,96,79,69,77,72,69,100,81,48,30.21,30.09,6,2,19,0.00
2013-8-13,92,77,69,74,69,-100,100,83,55,30.10,29.93,8,4,19,0.04
2013-8-14,85,72,61,71,63,-100,99,80,48,30.20,29.99,8,3,19,0.04
2013-8-15,79,63,59,63,52,-100,100,78,46,30.27,30.19,10,4,20,0.00
2013-8-16,76,63,57,64,56,-100,100,85,60,30.29,30.21,7,3,16,0.01
2013-8-17,69,64,59,64,61,58,100,93,80,30.31,30.25,7,4,19,0.39
2013-8-18,84,72,64,72,65,-100,100,83,61,30.35,30.26,4,2,9,0.31
2013-8-19,81,69,66,71,63,-100,100,89,61,30.30,30.22,4,2,18,1.01
2013-8-20,85,72,63,72,66,62,99,85,47,30.31,30.24,2,1,6,0.01
2013-8-21,84,74,68,72,69,67,99,86,61,30.35,30.25,4,2,12,0.00
2013-8-22,93,78,66,77,69,65,100,78,46,30.30,30.15,5,2,12,0.00
2013-8-23,93,75,66,73,69,66,99,84,47,30.20,30.11,8,3,31,0.00
2013-8-24,88,72,61,68,63,60,99,75,45,30.41,30.18,10,5,24,0.00
2013-8-25,87,66,56,67,59,-100,100,84,45,30.51,30.41,6,2,14,0.00
2013-8-26,90,68,54,69,60,54,100,82,42,30.45,30.26,4,2,12,0.00
2013-8-27,93,72,59,70,65,59,100,83,46,30.28,30.15,5,3,13,0.00
2013-8-28,94,86,72,74,72,69,98,66,48,30.14,30.06,6,4,13,0.00
2013-8-29,97,81,70,78,72,69,99,79,42,30.12,30.02,6,4,18,0.05
2013-8-30,91,77,68,74,69,63,100,82,41,30.18,30.08,5,3,14,0.06
2013-8-31,91,75,65,75,70,65,100,86,53,30.10,30.01,7,3,21,0.00